sensor_id;sensor_type;location;lat;lon;timestamp;P1;durP1;ratioP1;P2;durP2;ratioP2
68438;SDS011;55421;51.600;5.718;2023-01-19T00:00:28;15.90;;;9.20;;
68438;SDS011;55421;51.600;5.718;2023-01-19T00:03:15;13.50;;;7.70;;
68438;SDS011;55421;51.600;5.718;2023-01-19T00:05:43;13.60;;;8.20;;
68438;SDS011;55421;51.600;5.718;2023-01-19T00:08:10;20.30;;;11.40;;
68438;SDS011;55421;51.600;5.718;2023-01-19T00:10:45;16.60;;;9.40;;
68438;SDS011;55421;51.600;5.718;2023-01-19T00:13:14;12.20;;;7.80;;
68438;SDS011;55421;51.600;5.718;2023-01-19T00:15:41;16.70;;;9.20;;
68438;SDS011;55421;51.600;5.718;2023-01-19T00:18:08;16.10;;;8.90;;
68438;SDS011;55421;51.600;5.718;2023-01-19T00:20:35;11.60;;;6.00;;
68438;SDS011;55421;51.600;5.718;2023-01-19T00:23:02;20.80;;;10.10;;
68438;SDS011;55421;51.600;5.718;2023-01-19T00:25:29;17.40;;;10.80;;
68438;SDS011;55421;51.600;5.718;2023-01-19T00:27:56;14.60;;;9.40;;
68438;SDS011;55421;51.600;5.718;2023-01-19T00:30:22;14.50;;;9.50;;
68438;SDS011;55421;51.600;5.718;2023-01-19T00:32:49;13.30;;;7.90;;
68438;SDS011;55421;51.600;5.718;2023-01-19T00:35:16;17.10;;;8.70;;
68438;SDS011;55421;51.600;5.718;2023-01-19T00:37:42;19.30;;;10.80;;
68438;SDS011;55421;51.600;5.718;2023-01-19T00:40:12;13.30;;;8.60;;
68438;SDS011;55421;51.600;5.718;2023-01-19T00:42:39;20.20;;;10.30;;
68438;SDS011;55421;51.600;5.718;2023-01-19T00:45:11;18.70;;;10.40;;
68438;SDS011;55421;51.600;5.718;2023-01-19T00:47:41;20.00;;;10.10;;
68438;SDS011;55421;51.600;5.718;2023-01-19T00:50:09;10.70;;;6.80;;
68438;SDS011;55421;51.600;5.718;2023-01-19T00:52:40;13.20;;;7.80;;
68438;SDS011;55421;51.600;5.718;2023-01-19T00:55:08;11.10;;;5.60;;
68438;SDS011;55421;51.600;5.718;2023-01-19T00:57:37;15.30;;;8.60;;
68438;SDS011;55421;51.600;5.718;2023-01-19T01:00:05;15.20;;;9.10;;
68438;SDS011;55421;51.600;5.718;2023-01-19T01:02:38;13.00;;;8.20;;
68438;SDS011;55421;51.600;5.718;2023-01-19T01:05:07;17.90;;;9.90;;
68438;SDS011;55421;51.600;5.718;2023-01-19T01:07:34;18.80;;;9.50;;
68438;SDS011;55421;51.600;5.718;2023-01-19T01:10:19;13.60;;;8.00;;
68438;SDS011;55421;51.600;5.718;2023-01-19T01:12:47;13.70;;;9.00;;
68438;SDS011;55421;51.600;5.718;2023-01-19T01:15:15;15.70;;;8.90;;
68438;SDS011;55421;51.600;5.718;2023-01-19T01:17:43;16.50;;;9.90;;
68438;SDS011;55421;51.600;5.718;2023-01-19T01:20:20;14.70;;;8.60;;
68438;SDS011;55421;51.600;5.718;2023-01-19T01:22:51;16.90;;;9.40;;
68438;SDS011;55421;51.600;5.718;2023-01-19T01:25:21;17.00;;;9.60;;
68438;SDS011;55421;51.600;5.718;2023-01-19T01:27:49;18.00;;;10.10;;
68438;SDS011;55421;51.600;5.718;2023-01-19T01:30:16;21.10;;;9.90;;
68438;SDS011;55421;51.600;5.718;2023-01-19T01:32:44;15.00;;;8.40;;
68438;SDS011;55421;51.600;5.718;2023-01-19T01:35:11;15.60;;;9.00;;
68438;SDS011;55421;51.600;5.718;2023-01-19T01:37:39;17.60;;;10.10;;
68438;SDS011;55421;51.600;5.718;2023-01-19T01:40:06;14.10;;;7.90;;
68438;SDS011;55421;51.600;5.718;2023-01-19T01:42:35;15.90;;;9.30;;
68438;SDS011;55421;51.600;5.718;2023-01-19T01:45:28;14.40;;;8.30;;
68438;SDS011;55421;51.600;5.718;2023-01-19T01:48:03;16.70;;;8.10;;
68438;SDS011;55421;51.600;5.718;2023-01-19T01:54:03;12.90;;;7.60;;
68438;SDS011;55421;51.600;5.718;2023-01-19T01:56:55;13.80;;;8.20;;
68438;SDS011;55421;51.600;5.718;2023-01-19T01:59:35;21.10;;;8.90;;
68438;SDS011;55421;51.600;5.718;2023-01-19T02:02:09;20.10;;;10.40;;
68438;SDS011;55421;51.600;5.718;2023-01-19T02:05:01;12.50;;;6.40;;
68438;SDS011;55421;51.600;5.718;2023-01-19T02:07:54;12.20;;;7.00;;
68438;SDS011;55421;51.600;5.718;2023-01-19T02:10:45;12.80;;;5.80;;
68438;SDS011;55421;51.600;5.718;2023-01-19T02:13:33;15.10;;;8.30;;
68438;SDS011;55421;51.600;5.718;2023-01-19T02:16:06;11.10;;;6.10;;
68438;SDS011;55421;51.600;5.718;2023-01-19T02:18:34;20.00;;;10.00;;
68438;SDS011;55421;51.600;5.718;2023-01-19T02:21:13;20.00;;;9.90;;
68438;SDS011;55421;51.600;5.718;2023-01-19T02:23:47;16.00;;;8.00;;
68438;SDS011;55421;51.600;5.718;2023-01-19T02:26:20;10.20;;;5.50;;
68438;SDS011;55421;51.600;5.718;2023-01-19T02:29:12;9.30;;;5.00;;
68438;SDS011;55421;51.600;5.718;2023-01-19T02:31:41;9.10;;;5.30;;
68438;SDS011;55421;51.600;5.718;2023-01-19T02:34:11;15.60;;;9.60;;
68438;SDS011;55421;51.600;5.718;2023-01-19T02:36:53;13.10;;;6.80;;
68438;SDS011;55421;51.600;5.718;2023-01-19T02:39:29;16.40;;;8.80;;
68438;SDS011;55421;51.600;5.718;2023-01-19T02:42:06;9.90;;;6.00;;
68438;SDS011;55421;51.600;5.718;2023-01-19T02:44:36;14.50;;;7.10;;
68438;SDS011;55421;51.600;5.718;2023-01-19T02:47:04;7.90;;;5.20;;
68438;SDS011;55421;51.600;5.718;2023-01-19T02:49:31;12.60;;;7.20;;
68438;SDS011;55421;51.600;5.718;2023-01-19T02:51:57;15.70;;;9.30;;
68438;SDS011;55421;51.600;5.718;2023-01-19T02:54:32;14.50;;;8.50;;
68438;SDS011;55421;51.600;5.718;2023-01-19T03:00:14;13.50;;;7.30;;
68438;SDS011;55421;51.600;5.718;2023-01-19T03:11:12;10.60;;;6.50;;
68438;SDS011;55421;51.600;5.718;2023-01-19T03:13:50;17.40;;;8.90;;
68438;SDS011;55421;51.600;5.718;2023-01-19T03:16:40;8.50;;;5.70;;
68438;SDS011;55421;51.600;5.718;2023-01-19T03:19:16;5.80;;;3.90;;
68438;SDS011;55421;51.600;5.718;2023-01-19T03:21:51;9.20;;;5.30;;
68438;SDS011;55421;51.600;5.718;2023-01-19T03:24:22;10.60;;;6.80;;
68438;SDS011;55421;51.600;5.718;2023-01-19T03:26:55;12.30;;;7.10;;
68438;SDS011;55421;51.600;5.718;2023-01-19T03:29:31;10.80;;;6.20;;
68438;SDS011;55421;51.600;5.718;2023-01-19T03:32:02;7.20;;;4.80;;
68438;SDS011;55421;51.600;5.718;2023-01-19T03:34:33;11.40;;;6.60;;
68438;SDS011;55421;51.600;5.718;2023-01-19T03:37:02;11.00;;;7.30;;
68438;SDS011;55421;51.600;5.718;2023-01-19T03:39:30;10.10;;;6.90;;
68438;SDS011;55421;51.600;5.718;2023-01-19T03:42:07;11.50;;;7.60;;
68438;SDS011;55421;51.600;5.718;2023-01-19T03:44:37;12.90;;;8.30;;
68438;SDS011;55421;51.600;5.718;2023-01-19T03:47:08;7.10;;;4.90;;
68438;SDS011;55421;51.600;5.718;2023-01-19T03:52:06;8.20;;;5.70;;
68438;SDS011;55421;51.600;5.718;2023-01-19T03:54:33;13.40;;;7.70;;
68438;SDS011;55421;51.600;5.718;2023-01-19T03:56:59;11.30;;;7.90;;
68438;SDS011;55421;51.600;5.718;2023-01-19T03:59:26;8.20;;;6.00;;
68438;SDS011;55421;51.600;5.718;2023-01-19T04:01:52;7.10;;;5.50;;
68438;SDS011;55421;51.600;5.718;2023-01-19T04:04:19;9.20;;;6.80;;
68438;SDS011;55421;51.600;5.718;2023-01-19T04:06:45;7.80;;;5.20;;
68438;SDS011;55421;51.600;5.718;2023-01-19T04:09:12;7.90;;;5.50;;
68438;SDS011;55421;51.600;5.718;2023-01-19T04:11:38;10.90;;;8.00;;
68438;SDS011;55421;51.600;5.718;2023-01-19T04:14:05;8.70;;;6.10;;
68438;SDS011;55421;51.600;5.718;2023-01-19T04:16:31;9.30;;;6.80;;
68438;SDS011;55421;51.600;5.718;2023-01-19T04:18:58;6.20;;;5.10;;
68438;SDS011;55421;51.600;5.718;2023-01-19T04:21:24;6.30;;;4.40;;
68438;SDS011;55421;51.600;5.718;2023-01-19T04:23:51;6.50;;;4.70;;
68438;SDS011;55421;51.600;5.718;2023-01-19T04:26:18;8.70;;;6.50;;
68438;SDS011;55421;51.600;5.718;2023-01-19T04:28:45;8.40;;;5.70;;
68438;SDS011;55421;51.600;5.718;2023-01-19T04:31:12;5.80;;;4.80;;
68438;SDS011;55421;51.600;5.718;2023-01-19T04:33:39;5.50;;;4.70;;
68438;SDS011;55421;51.600;5.718;2023-01-19T04:36:06;4.90;;;3.60;;
68438;SDS011;55421;51.600;5.718;2023-01-19T04:38:33;4.60;;;3.80;;
68438;SDS011;55421;51.600;5.718;2023-01-19T04:41:00;3.40;;;3.10;;
68438;SDS011;55421;51.600;5.718;2023-01-19T04:43:27;5.00;;;4.00;;
68438;SDS011;55421;51.600;5.718;2023-01-19T04:45:53;3.80;;;3.40;;
68438;SDS011;55421;51.600;5.718;2023-01-19T04:48:20;1.90;;;1.80;;
68438;SDS011;55421;51.600;5.718;2023-01-19T04:50:46;3.40;;;3.10;;
68438;SDS011;55421;51.600;5.718;2023-01-19T04:53:13;2.50;;;2.30;;
68438;SDS011;55421;51.600;5.718;2023-01-19T04:55:41;2.40;;;2.10;;
68438;SDS011;55421;51.600;5.718;2023-01-19T04:58:08;2.10;;;1.90;;
68438;SDS011;55421;51.600;5.718;2023-01-19T05:00:35;2.70;;;2.50;;
68438;SDS011;55421;51.600;5.718;2023-01-19T05:03:01;1.50;;;1.40;;
68438;SDS011;55421;51.600;5.718;2023-01-19T05:05:28;3.20;;;2.90;;
68438;SDS011;55421;51.600;5.718;2023-01-19T05:07:55;3.40;;;2.70;;
68438;SDS011;55421;51.600;5.718;2023-01-19T05:10:21;2.20;;;2.00;;
68438;SDS011;55421;51.600;5.718;2023-01-19T05:12:49;3.50;;;2.40;;
68438;SDS011;55421;51.600;5.718;2023-01-19T05:15:16;2.00;;;1.60;;
68438;SDS011;55421;51.600;5.718;2023-01-19T05:17:42;2.60;;;2.40;;
68438;SDS011;55421;51.600;5.718;2023-01-19T05:20:11;1.90;;;1.80;;
68438;SDS011;55421;51.600;5.718;2023-01-19T05:22:38;2.70;;;2.40;;
68438;SDS011;55421;51.600;5.718;2023-01-19T05:25:06;3.30;;;3.00;;
68438;SDS011;55421;51.600;5.718;2023-01-19T05:27:36;2.90;;;2.60;;
68438;SDS011;55421;51.600;5.718;2023-01-19T05:30:04;2.30;;;2.10;;
68438;SDS011;55421;51.600;5.718;2023-01-19T05:32:31;2.10;;;1.90;;
68438;SDS011;55421;51.600;5.718;2023-01-19T05:34:58;1.80;;;1.70;;
68438;SDS011;55421;51.600;5.718;2023-01-19T05:37:25;2.90;;;2.20;;
68438;SDS011;55421;51.600;5.718;2023-01-19T05:39:52;3.00;;;2.10;;
68438;SDS011;55421;51.600;5.718;2023-01-19T05:42:19;4.10;;;2.60;;
68438;SDS011;55421;51.600;5.718;2023-01-19T05:44:46;3.60;;;3.00;;
68438;SDS011;55421;51.600;5.718;2023-01-19T05:47:12;3.20;;;2.50;;
68438;SDS011;55421;51.600;5.718;2023-01-19T05:49:39;4.50;;;2.70;;
68438;SDS011;55421;51.600;5.718;2023-01-19T05:52:05;2.80;;;2.20;;
68438;SDS011;55421;51.600;5.718;2023-01-19T05:54:32;2.80;;;2.50;;
68438;SDS011;55421;51.600;5.718;2023-01-19T05:56:59;2.80;;;2.40;;
68438;SDS011;55421;51.600;5.718;2023-01-19T05:59:25;7.10;;;3.70;;
68438;SDS011;55421;51.600;5.718;2023-01-19T06:01:52;4.60;;;3.80;;
68438;SDS011;55421;51.600;5.718;2023-01-19T06:04:19;3.80;;;3.00;;
68438;SDS011;55421;51.600;5.718;2023-01-19T06:06:47;3.80;;;3.30;;
68438;SDS011;55421;51.600;5.718;2023-01-19T06:09:15;5.20;;;3.10;;
68438;SDS011;55421;51.600;5.718;2023-01-19T06:11:45;2.60;;;2.30;;
68438;SDS011;55421;51.600;5.718;2023-01-19T06:14:12;4.80;;;3.60;;
68438;SDS011;55421;51.600;5.718;2023-01-19T06:16:39;5.30;;;3.90;;
68438;SDS011;55421;51.600;5.718;2023-01-19T06:19:06;6.50;;;3.40;;
68438;SDS011;55421;51.600;5.718;2023-01-19T06:21:33;6.10;;;3.70;;
68438;SDS011;55421;51.600;5.718;2023-01-19T06:23:59;5.60;;;3.90;;
68438;SDS011;55421;51.600;5.718;2023-01-19T06:26:26;3.60;;;3.00;;
68438;SDS011;55421;51.600;5.718;2023-01-19T06:28:52;6.80;;;3.30;;
68438;SDS011;55421;51.600;5.718;2023-01-19T06:31:19;5.60;;;4.00;;
68438;SDS011;55421;51.600;5.718;2023-01-19T06:33:46;8.50;;;5.70;;
68438;SDS011;55421;51.600;5.718;2023-01-19T06:36:12;12.30;;;5.50;;
68438;SDS011;55421;51.600;5.718;2023-01-19T06:38:39;6.70;;;5.00;;
68438;SDS011;55421;51.600;5.718;2023-01-19T06:41:05;6.10;;;3.70;;
68438;SDS011;55421;51.600;5.718;2023-01-19T06:43:32;6.50;;;4.60;;
68438;SDS011;55421;51.600;5.718;2023-01-19T06:46:21;7.10;;;5.10;;
68438;SDS011;55421;51.600;5.718;2023-01-19T06:48:48;10.80;;;6.30;;
68438;SDS011;55421;51.600;5.718;2023-01-19T06:51:23;12.40;;;7.50;;
68438;SDS011;55421;51.600;5.718;2023-01-19T06:53:56;8.50;;;6.30;;
68438;SDS011;55421;51.600;5.718;2023-01-19T06:56:31;5.00;;;3.80;;
68438;SDS011;55421;51.600;5.718;2023-01-19T06:59:37;6.10;;;4.00;;
68438;SDS011;55421;51.600;5.718;2023-01-19T07:02:05;7.70;;;6.00;;
68438;SDS011;55421;51.600;5.718;2023-01-19T07:04:31;13.40;;;7.90;;
68438;SDS011;55421;51.600;5.718;2023-01-19T07:06:59;13.40;;;9.10;;
68438;SDS011;55421;51.600;5.718;2023-01-19T07:09:26;14.50;;;9.90;;
68438;SDS011;55421;51.600;5.718;2023-01-19T07:11:53;13.00;;;8.20;;
68438;SDS011;55421;51.600;5.718;2023-01-19T07:14:20;10.80;;;8.00;;
68438;SDS011;55421;51.600;5.718;2023-01-19T07:16:46;8.80;;;6.10;;
68438;SDS011;55421;51.600;5.718;2023-01-19T07:19:13;14.00;;;9.70;;
68438;SDS011;55421;51.600;5.718;2023-01-19T07:21:40;13.90;;;9.80;;
68438;SDS011;55421;51.600;5.718;2023-01-19T07:24:07;18.80;;;12.50;;
68438;SDS011;55421;51.600;5.718;2023-01-19T07:26:33;18.50;;;13.60;;
68438;SDS011;55421;51.600;5.718;2023-01-19T07:29:03;19.20;;;12.40;;
68438;SDS011;55421;51.600;5.718;2023-01-19T07:31:31;15.30;;;10.10;;
68438;SDS011;55421;51.600;5.718;2023-01-19T07:33:58;16.00;;;9.00;;
68438;SDS011;55421;51.600;5.718;2023-01-19T07:36:34;16.40;;;10.90;;
68438;SDS011;55421;51.600;5.718;2023-01-19T07:39:07;13.40;;;9.40;;
68438;SDS011;55421;51.600;5.718;2023-01-19T07:41:40;20.50;;;13.10;;
68438;SDS011;55421;51.600;5.718;2023-01-19T07:44:21;24.90;;;14.80;;
68438;SDS011;55421;51.600;5.718;2023-01-19T07:46:49;20.30;;;13.00;;
68438;SDS011;55421;51.600;5.718;2023-01-19T07:49:25;19.60;;;12.10;;
68438;SDS011;55421;51.600;5.718;2023-01-19T07:51:54;18.80;;;11.60;;
68438;SDS011;55421;51.600;5.718;2023-01-19T07:54:22;18.70;;;13.00;;
68438;SDS011;55421;51.600;5.718;2023-01-19T07:56:48;19.20;;;12.10;;
68438;SDS011;55421;51.600;5.718;2023-01-19T07:59:18;15.60;;;9.00;;
68438;SDS011;55421;51.600;5.718;2023-01-19T08:01:44;28.40;;;15.20;;
68438;SDS011;55421;51.600;5.718;2023-01-19T08:04:11;29.10;;;16.40;;
68438;SDS011;55421;51.600;5.718;2023-01-19T08:06:38;21.60;;;13.70;;
68438;SDS011;55421;51.600;5.718;2023-01-19T08:09:05;18.60;;;12.20;;
68438;SDS011;55421;51.600;5.718;2023-01-19T08:11:32;20.30;;;11.70;;
68438;SDS011;55421;51.600;5.718;2023-01-19T08:13:59;19.90;;;11.40;;
68438;SDS011;55421;51.600;5.718;2023-01-19T08:16:26;18.30;;;9.80;;
68438;SDS011;55421;51.600;5.718;2023-01-19T08:18:53;31.00;;;15.40;;
68438;SDS011;55421;51.600;5.718;2023-01-19T08:21:19;33.30;;;15.60;;
68438;SDS011;55421;51.600;5.718;2023-01-19T08:23:53;17.20;;;10.70;;
68438;SDS011;55421;51.600;5.718;2023-01-19T08:26:33;16.10;;;10.20;;
68438;SDS011;55421;51.600;5.718;2023-01-19T08:29:03;22.40;;;12.80;;
68438;SDS011;55421;51.600;5.718;2023-01-19T08:31:30;24.20;;;12.30;;
68438;SDS011;55421;51.600;5.718;2023-01-19T08:33:57;18.40;;;11.00;;
68438;SDS011;55421;51.600;5.718;2023-01-19T08:36:24;28.30;;;15.40;;
68438;SDS011;55421;51.600;5.718;2023-01-19T08:38:51;31.60;;;17.40;;
68438;SDS011;55421;51.600;5.718;2023-01-19T08:41:18;25.20;;;14.80;;
68438;SDS011;55421;51.600;5.718;2023-01-19T08:43:44;23.70;;;12.90;;
68438;SDS011;55421;51.600;5.718;2023-01-19T08:46:11;21.70;;;12.20;;
68438;SDS011;55421;51.600;5.718;2023-01-19T08:48:42;24.40;;;13.50;;
68438;SDS011;55421;51.600;5.718;2023-01-19T08:51:13;23.40;;;11.40;;
68438;SDS011;55421;51.600;5.718;2023-01-19T08:53:41;24.50;;;13.90;;
68438;SDS011;55421;51.600;5.718;2023-01-19T08:56:11;33.40;;;18.40;;
68438;SDS011;55421;51.600;5.718;2023-01-19T09:01:08;23.10;;;10.10;;
68438;SDS011;55421;51.600;5.718;2023-01-19T09:03:36;16.40;;;9.70;;
68438;SDS011;55421;51.600;5.718;2023-01-19T09:06:07;17.60;;;10.00;;
68438;SDS011;55421;51.600;5.718;2023-01-19T09:08:35;15.00;;;9.20;;
68438;SDS011;55421;51.600;5.718;2023-01-19T09:11:01;24.00;;;12.20;;
68438;SDS011;55421;51.600;5.718;2023-01-19T09:13:28;31.00;;;16.60;;
68438;SDS011;55421;51.600;5.718;2023-01-19T09:16:04;25.20;;;15.10;;
68438;SDS011;55421;51.600;5.718;2023-01-19T09:18:47;18.40;;;11.20;;
68438;SDS011;55421;51.600;5.718;2023-01-19T09:21:17;24.30;;;14.60;;
68438;SDS011;55421;51.600;5.718;2023-01-19T09:23:47;27.00;;;14.80;;
68438;SDS011;55421;51.600;5.718;2023-01-19T09:26:15;25.40;;;13.20;;
68438;SDS011;55421;51.600;5.718;2023-01-19T09:28:41;21.00;;;10.40;;
68438;SDS011;55421;51.600;5.718;2023-01-19T09:31:08;33.00;;;16.00;;
68438;SDS011;55421;51.600;5.718;2023-01-19T09:33:35;31.70;;;16.50;;
68438;SDS011;55421;51.600;5.718;2023-01-19T09:36:05;27.10;;;12.00;;
68438;SDS011;55421;51.600;5.718;2023-01-19T09:38:32;21.70;;;11.00;;
68438;SDS011;55421;51.600;5.718;2023-01-19T09:41:19;27.20;;;11.90;;
68438;SDS011;55421;51.600;5.718;2023-01-19T09:43:54;33.80;;;14.50;;
68438;SDS011;55421;51.600;5.718;2023-01-19T09:46:38;24.30;;;12.00;;
68438;SDS011;55421;51.600;5.718;2023-01-19T09:49:15;24.90;;;13.20;;
68438;SDS011;55421;51.600;5.718;2023-01-19T09:51:49;33.00;;;16.20;;
68438;SDS011;55421;51.600;5.718;2023-01-19T09:57:12;29.10;;;13.60;;
68438;SDS011;55421;51.600;5.718;2023-01-19T09:59:40;32.10;;;14.60;;
68438;SDS011;55421;51.600;5.718;2023-01-19T10:05:01;28.10;;;12.90;;
68438;SDS011;55421;51.600;5.718;2023-01-19T10:16:11;34.90;;;14.90;;
68438;SDS011;55421;51.600;5.718;2023-01-19T10:18:50;31.10;;;14.90;;
68438;SDS011;55421;51.600;5.718;2023-01-19T10:21:30;41.70;;;17.10;;
68438;SDS011;55421;51.600;5.718;2023-01-19T10:24:37;38.40;;;18.00;;
68438;SDS011;55421;51.600;5.718;2023-01-19T10:27:16;35.80;;;16.20;;
68438;SDS011;55421;51.600;5.718;2023-01-19T10:29:44;35.10;;;16.60;;
68438;SDS011;55421;51.600;5.718;2023-01-19T10:32:47;37.20;;;17.70;;
68438;SDS011;55421;51.600;5.718;2023-01-19T10:35:14;34.20;;;15.90;;
68438;SDS011;55421;51.600;5.718;2023-01-19T10:37:54;25.10;;;13.10;;
68438;SDS011;55421;51.600;5.718;2023-01-19T10:40:27;31.90;;;15.20;;
68438;SDS011;55421;51.600;5.718;2023-01-19T10:43:34;33.70;;;16.10;;
68438;SDS011;55421;51.600;5.718;2023-01-19T10:46:04;30.40;;;15.50;;
68438;SDS011;55421;51.600;5.718;2023-01-19T10:48:40;28.70;;;12.70;;
68438;SDS011;55421;51.600;5.718;2023-01-19T10:51:09;31.60;;;16.50;;
68438;SDS011;55421;51.600;5.718;2023-01-19T10:53:36;32.20;;;16.10;;
68438;SDS011;55421;51.600;5.718;2023-01-19T10:56:21;26.40;;;14.30;;
68438;SDS011;55421;51.600;5.718;2023-01-19T10:58:50;31.90;;;15.20;;
68438;SDS011;55421;51.600;5.718;2023-01-19T11:01:22;27.90;;;14.00;;
68438;SDS011;55421;51.600;5.718;2023-01-19T11:03:51;31.30;;;15.80;;
68438;SDS011;55421;51.600;5.718;2023-01-19T11:06:25;30.80;;;15.60;;
68438;SDS011;55421;51.600;5.718;2023-01-19T11:09:17;27.90;;;14.30;;
68438;SDS011;55421;51.600;5.718;2023-01-19T11:11:50;27.00;;;12.90;;
68438;SDS011;55421;51.600;5.718;2023-01-19T11:14:21;30.10;;;14.10;;
68438;SDS011;55421;51.600;5.718;2023-01-19T11:16:54;24.30;;;11.90;;
68438;SDS011;55421;51.600;5.718;2023-01-19T11:22:16;24.60;;;13.80;;
68438;SDS011;55421;51.600;5.718;2023-01-19T11:24:48;29.40;;;14.50;;
68438;SDS011;55421;51.600;5.718;2023-01-19T11:27:16;27.90;;;14.50;;
68438;SDS011;55421;51.600;5.718;2023-01-19T11:30:14;18.70;;;10.90;;
68438;SDS011;55421;51.600;5.718;2023-01-19T11:32:45;29.00;;;12.90;;
68438;SDS011;55421;51.600;5.718;2023-01-19T11:40:38;19.70;;;11.10;;
68438;SDS011;55421;51.600;5.718;2023-01-19T11:43:10;20.40;;;11.50;;
68438;SDS011;55421;51.600;5.718;2023-01-19T11:45:38;27.70;;;12.40;;
68438;SDS011;55421;51.600;5.718;2023-01-19T11:48:06;28.10;;;13.10;;
68438;SDS011;55421;51.600;5.718;2023-01-19T11:50:43;24.70;;;12.70;;
68438;SDS011;55421;51.600;5.718;2023-01-19T11:53:27;20.90;;;11.10;;
68438;SDS011;55421;51.600;5.718;2023-01-19T11:56:08;23.50;;;11.50;;
68438;SDS011;55421;51.600;5.718;2023-01-19T11:58:38;25.60;;;11.20;;
68438;SDS011;55421;51.600;5.718;2023-01-19T12:01:20;25.90;;;11.60;;
68438;SDS011;55421;51.600;5.718;2023-01-19T12:03:59;25.00;;;12.40;;
68438;SDS011;55421;51.600;5.718;2023-01-19T12:06:32;29.90;;;14.00;;
68438;SDS011;55421;51.600;5.718;2023-01-19T12:11:46;20.60;;;12.40;;
68438;SDS011;55421;51.600;5.718;2023-01-19T12:14:23;27.00;;;13.20;;
68438;SDS011;55421;51.600;5.718;2023-01-19T12:17:01;25.40;;;11.90;;
68438;SDS011;55421;51.600;5.718;2023-01-19T12:19:56;27.40;;;12.90;;
68438;SDS011;55421;51.600;5.718;2023-01-19T12:22:45;23.70;;;11.40;;
68438;SDS011;55421;51.600;5.718;2023-01-19T12:25:21;25.50;;;11.10;;
68438;SDS011;55421;51.600;5.718;2023-01-19T12:27:53;27.20;;;11.60;;
68438;SDS011;55421;51.600;5.718;2023-01-19T12:30:25;22.50;;;10.70;;
68438;SDS011;55421;51.600;5.718;2023-01-19T12:33:59;20.40;;;10.90;;
68438;SDS011;55421;51.600;5.718;2023-01-19T12:38:54;22.90;;;11.70;;
68438;SDS011;55421;51.600;5.718;2023-01-19T12:41:26;20.90;;;10.00;;
68438;SDS011;55421;51.600;5.718;2023-01-19T12:46:56;26.40;;;11.70;;
68438;SDS011;55421;51.600;5.718;2023-01-19T12:55:01;19.20;;;10.00;;
68438;SDS011;55421;51.600;5.718;2023-01-19T12:57:36;19.50;;;10.10;;
68438;SDS011;55421;51.600;5.718;2023-01-19T13:02:54;16.60;;;8.40;;
68438;SDS011;55421;51.600;5.718;2023-01-19T13:13:44;14.30;;;7.20;;
68438;SDS011;55421;51.600;5.718;2023-01-19T13:21:41;19.40;;;9.30;;
68438;SDS011;55421;51.600;5.718;2023-01-19T13:24:18;16.90;;;9.30;;
68438;SDS011;55421;51.600;5.718;2023-01-19T13:29:33;18.60;;;8.70;;
68438;SDS011;55421;51.600;5.718;2023-01-19T13:32:16;20.00;;;8.70;;
68438;SDS011;55421;51.600;5.718;2023-01-19T13:34:53;19.00;;;9.50;;
68438;SDS011;55421;51.600;5.718;2023-01-19T13:37:34;19.60;;;9.60;;
68438;SDS011;55421;51.600;5.718;2023-01-19T13:40:05;17.50;;;7.80;;
68438;SDS011;55421;51.600;5.718;2023-01-19T13:42:36;15.40;;;7.90;;
68438;SDS011;55421;51.600;5.718;2023-01-19T13:45:16;18.20;;;8.80;;
68438;SDS011;55421;51.600;5.718;2023-01-19T13:47:53;20.10;;;10.00;;
68438;SDS011;55421;51.600;5.718;2023-01-19T13:50:30;17.30;;;9.20;;
68438;SDS011;55421;51.600;5.718;2023-01-19T13:52:59;17.80;;;8.40;;
68438;SDS011;55421;51.600;5.718;2023-01-19T13:55:28;18.60;;;10.00;;
68438;SDS011;55421;51.600;5.718;2023-01-19T13:57:56;18.10;;;9.00;;
68438;SDS011;55421;51.600;5.718;2023-01-19T14:00:28;21.40;;;9.30;;
68438;SDS011;55421;51.600;5.718;2023-01-19T14:02:59;17.60;;;9.80;;
68438;SDS011;55421;51.600;5.718;2023-01-19T14:05:38;19.60;;;11.70;;
68438;SDS011;55421;51.600;5.718;2023-01-19T14:10:38;21.00;;;10.40;;
68438;SDS011;55421;51.600;5.718;2023-01-19T14:13:19;20.70;;;10.20;;
68438;SDS011;55421;51.600;5.718;2023-01-19T14:15:49;14.20;;;7.80;;
68438;SDS011;55421;51.600;5.718;2023-01-19T14:23:41;16.70;;;9.30;;
68438;SDS011;55421;51.600;5.718;2023-01-19T14:34:48;21.80;;;11.50;;
68438;SDS011;55421;51.600;5.718;2023-01-19T14:37:24;25.80;;;10.80;;
68438;SDS011;55421;51.600;5.718;2023-01-19T14:40:11;23.70;;;11.50;;
68438;SDS011;55421;51.600;5.718;2023-01-19T14:45:24;20.20;;;11.60;;
68438;SDS011;55421;51.600;5.718;2023-01-19T14:47:58;19.30;;;10.40;;
68438;SDS011;55421;51.600;5.718;2023-01-19T14:50:36;29.70;;;13.30;;
68438;SDS011;55421;51.600;5.718;2023-01-19T14:53:13;24.20;;;10.50;;
68438;SDS011;55421;51.600;5.718;2023-01-19T14:55:54;21.90;;;10.60;;
68438;SDS011;55421;51.600;5.718;2023-01-19T14:58:29;23.50;;;11.60;;
68438;SDS011;55421;51.600;5.718;2023-01-19T15:01:00;23.00;;;10.40;;
68438;SDS011;55421;51.600;5.718;2023-01-19T15:03:27;24.00;;;11.40;;
68438;SDS011;55421;51.600;5.718;2023-01-19T15:05:57;18.40;;;10.30;;
68438;SDS011;55421;51.600;5.718;2023-01-19T15:08:30;22.20;;;11.10;;
68438;SDS011;55421;51.600;5.718;2023-01-19T15:11:08;25.70;;;13.80;;
68438;SDS011;55421;51.600;5.718;2023-01-19T15:13:37;28.60;;;12.30;;
68438;SDS011;55421;51.600;5.718;2023-01-19T15:16:05;26.80;;;12.60;;
68438;SDS011;55421;51.600;5.718;2023-01-19T15:18:34;27.00;;;12.40;;
68438;SDS011;55421;51.600;5.718;2023-01-19T15:21:02;28.00;;;12.10;;
68438;SDS011;55421;51.600;5.718;2023-01-19T15:23:30;22.70;;;11.10;;
68438;SDS011;55421;51.600;5.718;2023-01-19T15:26:02;21.60;;;11.80;;
68438;SDS011;55421;51.600;5.718;2023-01-19T15:28:30;27.00;;;12.70;;
68438;SDS011;55421;51.600;5.718;2023-01-19T15:30:58;24.00;;;11.40;;
68438;SDS011;55421;51.600;5.718;2023-01-19T15:33:28;25.30;;;11.10;;
68438;SDS011;55421;51.600;5.718;2023-01-19T15:35:58;21.10;;;11.70;;
68438;SDS011;55421;51.600;5.718;2023-01-19T15:38:24;20.80;;;11.90;;
68438;SDS011;55421;51.600;5.718;2023-01-19T15:40:51;28.30;;;13.00;;
68438;SDS011;55421;51.600;5.718;2023-01-19T15:43:18;21.00;;;12.10;;
68438;SDS011;55421;51.600;5.718;2023-01-19T15:45:53;20.20;;;10.70;;
68438;SDS011;55421;51.600;5.718;2023-01-19T15:48:25;22.20;;;10.30;;
68438;SDS011;55421;51.600;5.718;2023-01-19T15:50:52;22.40;;;10.50;;
68438;SDS011;55421;51.600;5.718;2023-01-19T15:53:20;27.50;;;12.50;;
68438;SDS011;55421;51.600;5.718;2023-01-19T15:55:50;20.40;;;9.90;;
68438;SDS011;55421;51.600;5.718;2023-01-19T15:58:18;23.60;;;10.50;;
68438;SDS011;55421;51.600;5.718;2023-01-19T16:00:55;24.10;;;10.80;;
68438;SDS011;55421;51.600;5.718;2023-01-19T16:03:24;23.40;;;11.00;;
68438;SDS011;55421;51.600;5.718;2023-01-19T16:05:51;20.60;;;10.50;;
68438;SDS011;55421;51.600;5.718;2023-01-19T16:08:18;20.90;;;10.00;;
68438;SDS011;55421;51.600;5.718;2023-01-19T16:10:44;22.00;;;10.60;;
68438;SDS011;55421;51.600;5.718;2023-01-19T16:13:11;22.40;;;11.60;;
68438;SDS011;55421;51.600;5.718;2023-01-19T16:15:41;24.20;;;11.60;;
68438;SDS011;55421;51.600;5.718;2023-01-19T16:18:08;23.00;;;10.50;;
68438;SDS011;55421;51.600;5.718;2023-01-19T16:20:34;30.60;;;11.80;;
68438;SDS011;55421;51.600;5.718;2023-01-19T16:23:01;19.70;;;10.20;;
68438;SDS011;55421;51.600;5.718;2023-01-19T16:25:28;26.10;;;10.30;;
68438;SDS011;55421;51.600;5.718;2023-01-19T16:27:56;24.90;;;10.30;;
68438;SDS011;55421;51.600;5.718;2023-01-19T16:30:23;22.00;;;11.40;;